Hinkley, California
Current Conditions -  °F | °C
As of 4:50 AM on Thursday 27 Nov 2014 (Local Time) from KDAG Reporting Station
Clear Clear  
Wind Chill: 39°   Ceiling: Unl
Heat Index: 44°   Visibility: 10mi
Dew Point: 11°   Wind: 9mph
Humidity: 26%   Direction: 270°W
Pressure: 30.26"   Gusts: NA
Location:  34.93°N, 117.2°W
Report Text: KDAG 271250Z AUTO 27008KT 10SM CLR 07/M12 A3026 RMK AO2 SLP241 T00671117
Loading
Personal Weather Stations






























Interactive Weather Map New forecast layout! Learn more

10-Day Weather Forecast

Advertisements
Track Severe Weather on mobile